Terminal Aerodrome Forecast
Issued by NWS

Home | Current Version | Previous Version | Text Only | Print | Product List | Glossary On
Versions: 1 2 3 4 5 6 7 8 9 10 11 12 13 14 15 16 17 18 19 20 21 22
000
FTUS43 KLSX 251140
TAFUIN
TAF
KUIN 251140Z 2512/2612 18009KT P6SM VCSH BKN070
     FM251700 18013KT P6SM SCT040 BKN250
      TEMPO 2519/2522 4SM -TSRA BR BKN040CB
     FM260100 17010KT P6SM BKN050
     FM260600 20009KT 5SM -TSRA BR BKN035CB=

USA.gov is the U.S. government's official web portal to all federal, state and local government web resources and services.